Time;durP1;ratioP1;P1;durP2;ratioP2;P2;SDS_P1;SDS_P2;PMS_P1;PMS_P2;Temp;Humidity;BMP_temperature;BMP_pressure;BME280_temperature;BME280_humidity;BME280_pressure;Samples;Min_cycle;Max_cycle;Signal;HPM_P1;HPM_P2
2022/11/05 00:10:36;;;;;;;9.80;7.47;;;9.30;99.90;;;9.40;100.00;100514.97;4891317;29;20448;-69
2022/11/05 00:18:40;;;;;;;10.47;8.87;;;9.30;99.90;;;9.42;100.00;100526.41;4866076;29;20978;-68
2022/11/05 00:25:12;;;;;;;11.40;8.50;;;9.30;99.90;;;9.31;100.00;100524.31;4894819;29;20444;-69
2022/11/05 00:26:52;;;;;;;8.67;6.33;;;9.30;99.90;;;9.31;100.00;100525.13;4894967;29;20456;-69
2022/11/05 00:29:20;;;;;;;9.73;7.53;;;9.30;99.90;;;9.37;100.00;100534.28;4894046;29;20536;-68
2022/11/05 00:31:49;;;;;;;10.40;6.77;;;9.30;99.90;;;9.29;100.00;100524.53;4895617;29;20444;-69
2022/11/05 00:34:18;;;;;;;9.50;5.90;;;9.30;99.90;;;9.28;100.00;100527.41;4909682;29;20427;-68
2022/11/05 00:36:47;;;;;;;22.70;8.63;;;9.30;99.90;;;9.39;100.00;100534.94;4894601;29;20444;-67
2022/11/05 00:39:17;;;;;;;10.20;7.30;;;9.30;99.90;;;9.37;100.00;100531.59;4893426;29;20654;-69
2022/11/05 00:44:58;;;;;;;9.77;6.57;;;9.30;99.90;;;9.33;100.00;100533.88;4894435;29;20421;-68
2022/11/05 00:50:10;;;;;;;9.27;6.87;;;9.30;99.90;;;9.41;100.00;100543.66;4908692;29;20486;-69
2022/11/05 00:55:25;;;;;;;10.83;6.70;;;9.30;99.90;;;9.32;100.00;100547.56;4893309;29;21139;-69
2022/11/05 00:57:54;;;;;;;13.37;6.93;;;9.30;99.90;;;9.31;100.00;100548.59;4894395;29;20739;-69
2022/11/05 01:00:26;;;;;;;15.53;7.87;;;9.30;99.90;;;9.29;100.00;100546.13;4894470;29;20810;-68
2022/11/05 01:02:59;;;;;;;15.90;6.70;;;9.30;99.90;;;9.39;100.00;100551.94;4894246;29;20878;-69
2022/11/05 01:05:30;;;;;;;8.73;5.80;;;9.30;99.90;;;9.37;100.00;100558.59;4893882;29;20516;-68
2022/11/05 01:08:00;;;;;;;8.00;6.00;;;9.30;99.90;;;9.34;100.00;100559.84;4895640;29;20844;-68
2022/11/05 01:10:31;;;;;;;17.50;7.27;;;9.30;99.90;;;9.36;100.00;100562.31;4897827;29;20730;-70
2022/11/05 01:13:00;;;;;;;11.90;6.73;;;9.30;99.90;;;9.34;100.00;100564.41;4898138;29;20470;-69
2022/11/05 01:15:29;;;;;;;8.00;5.43;;;9.30;99.90;;;9.25;100.00;100566.44;4898226;29;20458;-69
2022/11/05 01:17:58;;;;;;;9.90;6.77;;;9.30;99.90;;;9.39;100.00;100572.75;4898508;29;20798;-68
2022/11/05 01:20:27;;;;;;;11.20;6.70;;;9.30;99.90;;;9.38;100.00;100573.78;4898094;29;20474;-68
2022/11/05 01:22:56;;;;;;;8.77;6.50;;;9.30;99.90;;;9.50;100.00;100572.97;4897728;29;20441;-68
2022/11/05 01:25:25;;;;;;;9.63;6.90;;;9.40;99.90;;;9.53;100.00;100575.28;4897805;29;20440;-69
2022/11/05 01:27:55;;;;;;;11.67;6.90;;;9.50;99.90;;;9.44;100.00;100578.38;4897729;29;20804;-69
2022/11/05 01:30:24;;;;;;;10.50;6.30;;;9.40;99.90;;;9.45;100.00;100577.31;4897565;29;20430;-67
2022/11/05 01:32:53;;;;;;;10.83;5.60;;;9.40;99.90;;;9.30;100.00;100579.31;4885537;29;20915;-68
2022/11/05 01:36:21;;;;;;;8.33;6.20;;;9.30;99.90;;;9.35;100.00;100579.56;4897958;29;20458;-68
2022/11/05 01:39:05;;;;;;;11.47;6.30;;;9.30;99.90;;;9.24;100.00;100574.75;4894242;29;20454;-69
2022/11/05 01:41:59;;;;;;;7.60;5.80;;;9.30;99.90;;;9.19;100.00;100588.03;4897920;29;20438;-69
2022/11/05 01:44:57;;;;;;;9.70;6.30;;;9.20;99.90;;;9.09;100.00;100586.53;4898706;29;20473;-68
2022/11/05 01:47:43;;;;;;;11.60;6.37;;;9.10;99.90;;;9.16;100.00;100590.06;4897714;29;20460;-69
2022/11/05 01:50:33;;;;;;;6.87;5.30;;;9.10;99.90;;;9.21;100.00;100583.25;4897488;29;20441;-70
2022/11/05 01:53:13;;;;;;;10.87;6.53;;;9.20;99.90;;;9.26;100.00;100580.78;4886440;29;20437;-68
2022/11/05 01:55:48;;;;;;;10.27;5.67;;;9.20;99.90;;;9.21;100.00;100583.25;4897651;29;20461;-71
2022/11/05 01:58:26;;;;;;;7.50;5.93;;;9.20;99.90;;;9.14;100.00;100586.75;4897341;29;20757;-67
2022/11/05 02:00:57;;;;;;;7.60;6.10;;;9.10;99.90;;;9.10;100.00;100596.28;4897332;29;20955;-69
2022/11/05 02:03:28;;;;;;;10.77;7.25;;;9.10;99.90;;;9.16;100.00;100594.63;4897016;29;20461;-68
2022/11/05 02:06:00;;;;;;;13.38;6.38;;;9.10;99.90;;;9.09;100.00;100602.72;4897069;29;20245;-69
2022/11/05 02:08:48;;;;;;;15.03;7.17;;;9.10;99.90;;;9.12;100.00;100602.31;4897145;29;20303;-68
2022/11/05 02:11:20;;;;;;;6.35;5.75;;;9.10;99.90;;;9.14;100.00;100605.66;4896886;29;20418;-69
2022/11/05 02:13:50;;;;;;;8.97;6.50;;;9.10;99.90;;;9.18;100.00;100607.94;4896134;29;20253;-69
2022/11/05 02:16:38;;;;;;;7.90;6.10;;;9.10;99.90;;;9.12;100.00;100615.81;4897716;29;20524;-69
2022/11/05 02:19:53;;;;;;;9.40;7.03;;;9.10;99.90;;;9.18;100.00;100618.75;4897025;29;20439;-68
2022/11/05 02:23:16;;;;;;;9.07;7.43;;;9.10;99.90;;;9.01;100.00;100629.03;4897272;29;20438;-68
2022/11/05 02:26:37;;;;;;;8.97;6.97;;;9.00;99.90;;;8.95;100.00;100627.97;4898139;29;20501;-69
2022/11/05 02:29:53;;;;;;;12.10;7.07;;;9.00;99.90;;;8.93;100.00;100629.19;4881611;29;20545;-69
2022/11/05 02:32:41;;;;;;;12.07;7.15;;;8.90;99.90;;;8.90;100.00;100627.72;4896110;29;20466;-69
2022/11/05 02:35:28;;;;;;;9.20;6.70;;;8.90;99.90;;;8.87;100.00;100629.97;4891298;29;20257;-69
2022/11/05 02:38:07;;;;;;;11.32;7.40;;;8.90;99.90;;;8.84;100.00;100639.31;4897352;29;20204;-70
2022/11/05 02:44:30;;;;;;;10.77;7.85;;;8.80;99.90;;;8.72;100.00;100643.56;4889760;29;20535;-68
2022/11/05 02:47:13;;;;;;;16.08;7.28;;;8.70;99.90;;;8.68;100.00;100642.28;4896628;29;20214;-69
2022/11/05 02:49:57;;;;;;;13.20;8.15;;;8.70;99.90;;;8.54;100.00;100651.31;4895991;29;20216;-69
2022/11/05 02:52:37;;;;;;;13.18;7.78;;;8.60;99.90;;;8.49;100.00;100648.34;4896512;29;20206;-70
2022/11/05 02:55:23;;;;;;;11.57;7.27;;;8.50;99.90;;;8.37;100.00;100653.47;4896062;29;20221;-68
2022/11/05 02:57:52;;;;;;;8.15;6.35;;;8.50;99.90;;;8.41;100.00;100651.19;4896261;29;20431;-68
2022/11/05 03:00:45;;;;;;;12.80;7.68;;;8.40;99.90;;;8.28;100.00;100647.31;4896739;29;20204;-69
2022/11/05 03:03:22;;;;;;;13.87;8.27;;;8.40;99.90;;;8.20;100.00;100655.53;4896456;29;20190;-69
2022/11/05 03:06:18;;;;;;;14.30;9.65;;;8.30;99.90;;;8.25;100.00;100666.59;4887690;29;20463;-69
2022/11/05 03:09:15;;;;;;;17.02;8.70;;;8.30;99.90;;;8.24;100.00;100659.50;4885655;29;20206;-70
2022/11/05 03:12:02;;;;;;;11.93;7.53;;;8.30;99.90;;;8.16;100.00;100673.13;4895699;29;20257;-70
2022/11/05 03:14:44;;;;;;;12.13;7.75;;;8.30;99.90;;;8.23;100.00;100670.47;4895675;29;20277;-68
2022/11/05 03:17:29;;;;;;;15.68;8.45;;;8.30;99.90;;;8.19;100.00;100675.44;4895687;29;20308;-70
2022/11/05 03:20:14;;;;;;;13.15;8.23;;;8.30;99.90;;;8.15;100.00;100676.84;4895762;29;20457;-70
2022/11/05 03:22:52;;;;;;;17.88;7.63;;;8.20;99.90;;;8.17;100.00;100680.19;4895663;29;20201;-69
2022/11/05 03:25:25;;;;;;;8.77;6.95;;;8.20;99.90;;;8.12;100.00;100681.78;4895240;29;20285;-69
2022/11/05 03:28:03;;;;;;;10.13;7.80;;;8.20;99.90;;;8.07;100.00;100686.91;4895646;29;20672;-68
2022/11/05 03:30:36;;;;;;;14.80;8.57;;;8.20;99.90;;;8.08;100.00;100686.75;4895364;29;20954;-70
2022/11/05 03:33:13;;;;;;;10.10;7.90;;;8.10;99.90;;;8.15;100.00;100693.00;4895040;29;20447;-69
2022/11/05 03:35:48;;;;;;;11.03;7.80;;;8.20;99.90;;;8.03;100.00;100699.94;4895504;29;20545;-70
2022/11/05 03:38:26;;;;;;;11.02;7.13;;;8.10;99.90;;;8.08;100.00;100702.91;4892873;29;20486;-70
2022/11/05 03:41:01;;;;;;;12.60;8.10;;;8.10;99.90;;;8.10;100.00;100700.84;4893641;29;20261;-70
2022/11/05 03:43:35;;;;;;;15.20;7.97;;;8.10;99.90;;;8.08;100.00;100702.06;4894991;29;20440;-69
2022/11/05 03:46:10;;;;;;;10.13;8.07;;;8.10;99.90;;;8.19;100.00;100713.16;4895073;29;20439;-68
2022/11/05 03:48:46;;;;;;;10.45;6.80;;;8.20;99.90;;;8.07;100.00;100712.00;4894871;29;20404;-68
2022/11/05 03:51:27;;;;;;;12.25;6.88;;;8.10;99.90;;;8.08;100.00;100713.69;4894730;29;20189;-68
2022/11/05 03:54:01;;;;;;;11.40;8.07;;;8.10;99.90;;;8.10;100.00;100719.69;4894982;29;20238;-70
2022/11/05 03:56:38;;;;;;;16.85;6.93;;;8.10;99.90;;;8.11;100.00;100717.84;4895118;29;20216;-68
2022/11/05 03:59:10;;;;;;;8.80;7.35;;;8.10;99.90;;;8.11;100.00;100728.63;4895664;29;20202;-69
2022/11/05 04:01:41;;;;;;;13.50;7.57;;;8.10;99.90;;;8.09;100.00;100720.72;4895343;29;20217;-69
2022/11/05 04:04:11;;;;;;;17.65;8.30;;;8.10;99.90;;;8.08;100.00;100729.84;4893921;29;20705;-68
2022/11/05 04:15:00;;;;;;;17.38;7.88;;;8.10;99.90;;;7.83;100.00;100745.50;4894368;29;20178;-69
2022/11/05 04:17:27;;;;;;;13.40;7.07;;;7.90;99.90;;;7.86;100.00;100747.81;4893939;29;20250;-70
2022/11/05 04:25:30;;;;;;;16.43;8.10;;;7.90;99.90;;;7.85;100.00;100751.53;4894478;29;20269;-70
2022/11/05 04:28:00;;;;;;;9.80;7.05;;;7.90;99.90;;;7.86;100.00;100757.75;4894674;29;20457;-69
2022/11/05 04:30:28;;;;;;;15.68;9.68;;;7.90;99.90;;;7.82;100.00;100761.84;4894577;29;20277;-69
2022/11/05 04:33:01;;;;;;;17.90;7.15;;;7.90;99.90;;;7.77;100.00;100770.50;4894017;29;20214;-71
2022/11/05 04:35:33;;;;;;;19.77;7.95;;;7.90;99.90;;;7.89;100.00;100773.53;4894572;29;20301;-70
2022/11/05 04:38:03;;;;;;;15.15;6.30;;;7.90;99.90;;;7.73;100.00;100776.44;4894119;29;20208;-71
2022/11/05 04:40:33;;;;;;;14.60;7.15;;;7.80;99.90;;;7.61;100.00;100775.22;4894205;29;20276;-70
2022/11/05 04:43:03;;;;;;;11.68;8.00;;;7.70;99.90;;;7.71;100.00;100773.09;4895357;29;20182;-69
2022/11/05 04:45:34;;;;;;;13.95;6.90;;;7.70;99.90;;;7.62;100.00;100776.91;4898085;29;20237;-69
2022/11/05 04:48:04;;;;;;;13.57;7.10;;;7.70;99.90;;;7.62;100.00;100775.06;4898392;29;20174;-70
2022/11/05 04:50:34;;;;;;;14.95;6.97;;;7.70;99.90;;;7.76;100.00;100784.16;4898633;29;20183;-70
2022/11/05 04:53:02;;;;;;;12.40;6.15;;;7.70;99.90;;;7.70;100.00;100777.63;4897567;29;20261;-70
2022/11/05 04:55:33;;;;;;;12.70;8.38;;;7.70;99.90;;;7.70;100.00;100780.34;4897697;29;20241;-69
2022/11/05 04:58:02;;;;;;;12.93;6.25;;;7.70;99.90;;;7.52;100.00;100779.88;4897749;29;20265;-71
2022/11/05 05:00:31;;;;;;;11.10;6.80;;;7.60;99.90;;;7.59;100.00;100786.19;4896317;29;20220;-69
2022/11/05 05:03:00;;;;;;;9.02;7.00;;;7.60;99.90;;;7.70;100.00;100784.88;4897499;29;20854;-70
2022/11/05 05:05:29;;;;;;;10.55;5.97;;;7.70;99.90;;;7.61;100.00;100783.31;4897952;29;20213;-70
2022/11/05 05:08:02;;;;;;;8.80;5.90;;;7.60;99.90;;;7.62;100.00;100780.44;4897543;29;20190;-71
2022/11/05 05:10:31;;;;;;;13.23;6.65;;;7.60;99.90;;;7.50;100.00;100781.09;4897921;29;20178;-71
2022/11/05 05:13:01;;;;;;;12.75;6.80;;;7.60;99.90;;;7.51;100.00;100782.75;4897532;29;20290;-69
2022/11/05 05:15:30;;;;;;;9.93;5.90;;;7.60;99.90;;;7.57;100.00;100776.63;4896467;29;20222;-71
2022/11/05 05:17:59;;;;;;;16.88;6.30;;;7.60;99.90;;;7.59;100.00;100785.38;4898166;29;20194;-69
2022/11/05 05:23:14;;;;;;;10.50;6.30;;;7.60;99.90;;;7.58;100.00;100787.22;4897769;29;20198;-70
2022/11/05 05:25:43;;;;;;;9.65;5.70;;;7.60;99.90;;;7.48;100.00;100793.91;4898056;29;20293;-68
2022/11/05 05:28:15;;;;;;;12.57;6.05;;;7.50;99.90;;;7.46;100.00;100802.16;4893006;29;20203;-68
2022/11/05 05:30:43;;;;;;;11.15;6.38;;;7.50;99.90;;;7.36;100.00;100797.03;4898048;29;20194;-70
2022/11/05 05:33:12;;;;;;;11.68;7.18;;;7.40;99.90;;;7.47;100.00;100811.06;4891483;29;20694;-68
2022/11/05 05:35:41;;;;;;;9.18;5.85;;;7.50;99.90;;;7.29;100.00;100804.19;4897205;29;20218;-68
2022/11/05 05:38:10;;;;;;;11.40;6.38;;;7.40;99.90;;;7.28;100.00;100801.66;4897144;29;20193;-69
2022/11/05 05:40:39;;;;;;;20.77;7.47;;;7.40;99.90;;;7.18;100.00;100807.31;4896381;29;20285;-69
2022/11/05 05:43:08;;;;;;;15.27;7.22;;;7.30;99.90;;;7.30;100.00;100816.63;4896291;29;20277;-69
2022/11/05 05:45:39;;;;;;;12.10;5.38;;;7.30;99.90;;;7.27;100.00;100822.34;4896782;29;20218;-68
2022/11/05 05:48:08;;;;;;;13.98;6.97;;;7.30;99.90;;;7.24;100.00;100822.72;4896414;29;20281;-69
2022/11/05 05:50:37;;;;;;;11.68;6.70;;;7.30;99.90;;;7.23;100.00;100826.44;4896690;29;20657;-70
2022/11/05 05:53:09;;;;;;;19.20;7.00;;;7.30;99.90;;;7.19;100.00;100832.38;4896512;29;20281;-69
2022/11/05 05:55:39;;;;;;;9.52;5.65;;;7.30;99.90;;;7.18;100.00;100828.84;4895456;29;20225;-69
2022/11/05 05:58:08;;;;;;;8.15;5.90;;;7.30;99.90;;;7.25;100.00;100831.66;4896638;29;20198;-70
2022/11/05 06:01:11;;;;;;;16.83;7.20;;;7.30;99.90;;;7.19;100.00;100835.91;4894469;29;20719;-69
2022/11/05 06:03:46;;;;;;;10.20;6.32;;;7.20;99.90;;;7.03;100.00;100833.34;4894766;29;20201;-70
2022/11/05 06:06:19;;;;;;;9.27;5.53;;;7.20;99.90;;;7.00;100.00;100847.16;4896301;29;20226;-68
2022/11/05 06:08:49;;;;;;;13.52;5.60;;;7.10;99.90;;;7.03;100.00;100860.25;4896633;29;20658;-69
2022/11/05 06:11:18;;;;;;;11.32;7.75;;;7.10;99.90;;;6.91;100.00;100859.84;4896763;29;20614;-70
2022/11/05 06:13:47;;;;;;;14.25;6.32;;;7.00;99.90;;;7.01;100.00;100867.66;4894817;29;20300;-69
2022/11/05 06:16:45;;;;;;;10.98;5.40;;;7.10;99.90;;;7.07;100.00;100866.13;4884664;29;20219;-70
2022/11/05 06:19:53;;;;;;;20.05;7.93;;;7.10;99.90;;;7.14;100.00;100875.13;4881477;29;20213;-69
2022/11/05 06:23:15;;;;;;;13.38;8.27;;;7.20;99.90;;;7.13;100.00;100879.66;4896956;29;20213;-69
2022/11/05 06:27:02;;;;;;;12.27;6.90;;;7.20;99.90;;;7.19;100.00;100891.56;4891661;29;20242;-69
2022/11/05 06:30:16;;;;;;;11.77;7.03;;;7.20;99.90;;;7.15;100.00;100892.97;4887186;29;20395;-69
2022/11/05 06:33:20;;;;;;;10.98;5.70;;;7.20;99.90;;;7.13;100.00;100894.97;4894369;29;20225;-69
2022/11/05 06:35:49;;;;;;;11.77;7.00;;;7.10;99.90;;;7.16;100.00;100895.47;4896102;29;20290;-69
2022/11/05 06:38:18;;;;;;;7.22;6.30;;;7.20;99.90;;;7.25;100.00;100905.16;4896411;29;20190;-69
2022/11/05 06:40:47;;;;;;;14.65;6.15;;;7.20;99.90;;;7.28;100.00;100912.03;4885796;29;20229;-70
2022/11/05 06:43:16;;;;;;;9.35;6.53;;;7.30;99.90;;;7.25;100.00;100915.94;4881363;29;20682;-68
2022/11/05 06:45:45;;;;;;;9.82;6.20;;;7.30;99.90;;;7.33;100.00;100923.09;4883319;29;20253;-69
2022/11/05 06:48:14;;;;;;;11.13;6.05;;;7.30;99.90;;;7.31;100.00;100923.25;4887092;29;20725;-69
2022/11/05 06:50:46;;;;;;;10.02;6.10;;;7.30;99.90;;;7.38;100.00;100931.47;4894896;29;20214;-69
2022/11/05 06:53:15;;;;;;;9.75;5.47;;;7.40;99.90;;;7.37;100.00;100930.63;4895937;29;20192;-69
2022/11/05 06:55:46;;;;;;;9.73;6.10;;;7.30;99.90;;;7.35;100.00;100921.91;4895637;29;20221;-69
2022/11/05 06:58:16;;;;;;;15.85;6.10;;;7.30;99.90;;;7.26;100.00;100928.34;4896218;29;20182;-69
2022/11/05 07:00:45;;;;;;;9.05;6.28;;;7.30;99.90;;;7.29;100.00;100933.38;4895589;29;20220;-69
2022/11/05 07:03:14;;;;;;;13.75;5.97;;;7.30;99.90;;;7.32;100.00;100941.09;4896204;29;20284;-68
2022/11/05 07:05:49;;;;;;;18.27;7.32;;;7.30;99.90;;;7.36;100.00;100933.47;4890676;29;20222;-69
2022/11/05 07:08:18;;;;;;;13.48;5.63;;;7.30;99.90;;;7.48;100.00;100942.00;4896628;29;20193;-70
2022/11/05 07:10:46;;;;;;;11.45;4.70;;;7.40;99.90;;;7.58;100.00;100937.19;4896960;29;20194;-70
2022/11/05 07:13:16;;;;;;;13.68;6.47;;;7.50;99.90;;;7.60;100.00;100945.94;4897007;29;20228;-70
2022/11/05 07:15:45;;;;;;;10.13;5.07;;;7.50;99.90;;;7.58;100.00;100954.19;4896983;29;20277;-71
2022/11/05 07:18:14;;;;;;;10.00;6.22;;;7.60;99.90;;;7.57;100.00;100957.06;4897120;29;20635;-70
2022/11/05 07:20:43;;;;;;;15.70;5.72;;;7.60;99.90;;;7.55;100.00;100965.31;4897096;29;20197;-70
2022/11/05 07:23:15;;;;;;;9.15;6.00;;;7.50;99.90;;;7.53;100.00;100966.53;4896867;29;20679;-69
2022/11/05 07:25:44;;;;;;;13.70;6.15;;;7.50;99.90;;;7.59;100.00;100973.88;4897468;29;20222;-69
2022/11/05 07:28:14;;;;;;;8.20;5.82;;;7.50;99.90;;;7.57;100.00;100973.22;4897557;29;20708;-71
2022/11/05 07:30:42;;;;;;;9.05;5.85;;;7.50;99.90;;;7.50;100.00;100978.50;4897141;29;20277;-71
2022/11/05 07:33:11;;;;;;;17.77;5.90;;;7.50;99.90;;;7.49;100.00;100987.59;4896621;29;20198;-69
2022/11/05 07:35:41;;;;;;;6.68;5.57;;;7.50;99.90;;;7.61;100.00;100985.28;4896640;29;20245;-69
2022/11/05 07:38:12;;;;;;;14.82;5.47;;;7.50;99.90;;;7.65;100.00;100986.63;4896990;29;20199;-69
2022/11/05 07:40:41;;;;;;;7.95;6.00;;;7.60;99.90;;;7.74;100.00;100985.53;4897172;29;20212;-68
2022/11/05 07:43:10;;;;;;;12.15;6.25;;;7.60;99.90;;;7.67;100.00;100981.88;4897958;29;20729;-70
2022/11/05 07:45:39;;;;;;;10.90;5.10;;;7.60;99.90;;;7.82;100.00;100974.69;4897672;29;20278;-68
2022/11/05 07:48:09;;;;;;;13.75;4.93;;;7.70;99.90;;;7.99;100.00;100978.88;4898014;29;20276;-69
2022/11/05 07:50:38;;;;;;;19.58;6.32;;;7.80;99.90;;;7.87;100.00;100980.38;4897298;29;20657;-70
2022/11/05 07:53:13;;;;;;;10.40;4.80;;;7.80;99.90;;;7.95;100.00;100982.13;4897687;29;20269;-71
2022/11/05 07:55:44;;;;;;;14.10;4.80;;;7.80;99.90;;;7.96;100.00;100987.34;4897801;29;20225;-69
2022/11/05 07:58:13;;;;;;;12.32;4.95;;;7.80;99.90;;;8.09;100.00;100979.47;4896496;29;20244;-71
2022/11/05 08:00:43;;;;;;;12.50;6.30;;;8.00;99.90;;;8.04;100.00;100989.94;4896538;29;20280;-70
2022/11/05 08:03:14;;;;;;;11.85;5.47;;;8.00;99.90;;;7.91;100.00;100995.13;4896668;29;20197;-70
2022/11/05 08:05:47;;;;;;;6.30;4.68;;;7.90;99.90;;;7.85;100.00;100998.56;4894909;29;20298;-71
2022/11/05 08:08:20;;;;;;;6.45;4.45;;;7.80;99.90;;;7.85;100.00;100998.56;4896118;29;20566;-69
2022/11/05 08:10:48;;;;;;;5.22;4.70;;;7.80;99.90;;;7.79;100.00;100999.31;4895903;29;20202;-67
2022/11/05 08:13:18;;;;;;;7.13;4.07;;;7.80;99.90;;;7.78;100.00;101005.72;4895289;29;20198;-68
2022/11/05 08:15:47;;;;;;;11.98;4.40;;;7.80;99.90;;;7.70;100.00;101005.75;4903317;23;20233;-70
2022/11/05 08:18:17;;;;;;;15.80;6.82;;;7.70;99.90;;;7.55;100.00;101003.00;4895552;29;20202;-70
2022/11/05 08:20:48;;;;;;;13.40;6.35;;;7.60;99.90;;;7.58;100.00;101008.06;4908808;29;20208;-70
2022/11/05 08:23:18;;;;;;;11.70;4.90;;;7.60;99.90;;;7.49;100.00;101013.69;4898514;29;20217;-69
2022/11/05 08:25:47;;;;;;;10.55;6.38;;;7.50;99.90;;;7.74;100.00;101018.72;4896736;29;20305;-70
2022/11/05 08:28:18;;;;;;;8.50;6.43;;;7.60;99.90;;;7.92;100.00;101020.22;4880006;29;20287;-68
2022/11/05 08:34:25;;;;;;;12.65;6.15;;;8.00;99.90;;;8.26;100.00;101034.06;4869294;29;20216;-68
2022/11/05 08:36:54;;;;;;;9.85;6.30;;;8.10;99.90;;;8.37;100.00;101035.50;4909631;29;20707;-69
2022/11/05 08:39:24;;;;;;;11.70;4.45;;;8.20;99.90;;;8.51;100.00;101034.69;4913127;29;20178;-72
2022/11/05 08:41:53;;;;;;;24.53;5.60;;;8.30;99.90;;;8.56;100.00;101046.59;4903584;29;20213;-70
2022/11/05 08:44:22;;;;;;;10.37;4.80;;;8.40;99.90;;;8.54;100.00;101047.78;4901405;29;20441;-71
2022/11/05 08:46:51;;;;;;;7.45;6.20;;;8.40;99.90;;;8.78;100.00;101044.81;4893953;29;20482;-71
2022/11/05 08:49:20;;;;;;;16.08;5.03;;;8.60;99.90;;;8.82;100.00;101046.09;4893950;29;20194;-71
2022/11/05 08:51:49;;;;;;;10.43;5.37;;;8.60;99.90;;;8.90;98.43;101050.59;4893864;29;20214;-73
2022/11/05 08:54:18;;;;;;;10.70;5.13;;;8.80;99.90;;;8.98;98.60;101039.69;4893934;29;20565;-70
2022/11/05 08:56:48;;;;;;;15.77;5.82;;;8.80;99.90;;;8.97;98.57;101049.63;4893984;29;20222;-70
2022/11/05 08:59:17;;;;;;;10.80;4.80;;;8.90;99.90;;;8.90;97.75;101048.72;4893913;29;20187;-71
2022/11/05 09:01:46;;;;;;;7.17;4.37;;;8.80;99.90;;;9.11;98.09;101053.34;4894308;29;20922;-70
2022/11/05 09:04:15;;;;;;;11.67;4.73;;;9.00;99.90;;;9.21;96.36;101061.97;4892535;29;20445;-70
2022/11/05 09:06:45;;;;;;;10.40;5.63;;;9.00;99.90;;;9.32;96.41;101052.56;4879133;29;20458;-72
2022/11/05 09:09:13;;;;;;;10.77;4.50;;;9.20;99.90;;;9.27;94.90;101053.13;4875438;29;20435;-70
2022/11/05 09:11:42;;;;;;;9.47;4.37;;;9.20;99.90;;;9.38;96.11;101062.59;4878571;29;20205;-72
2022/11/05 09:14:33;;;;;;;10.33;4.90;;;9.20;99.90;;;9.52;95.92;101069.84;4877649;29;20429;-71
2022/11/05 09:17:01;;;;;;;17.57;6.20;;;9.40;99.90;;;9.54;95.65;101065.06;4894670;29;20433;-69
2022/11/05 09:19:30;;;;;;;6.57;3.83;;;9.40;99.90;;;9.73;94.27;101074.44;4894983;29;20526;-73
2022/11/05 09:22:03;;;;;;;9.23;5.33;;;9.50;99.90;;;9.81;92.68;101080.53;4910821;29;20434;-68
2022/11/05 09:24:32;;;;;;;14.50;5.80;;;9.60;99.90;;;9.80;92.58;101076.16;4914846;29;20404;-70
2022/11/05 09:27:01;;;;;;;10.73;5.53;;;9.70;99.90;;;9.95;92.02;101071.53;4916512;29;20428;-72
2022/11/05 09:29:32;;;;;;;7.47;4.07;;;9.80;99.90;;;10.07;92.42;101076.41;4915317;29;20786;-71
2022/11/05 09:32:01;;;;;;;10.93;3.70;;;9.90;99.90;;;10.16;90.85;101086.94;4907910;29;20465;-73
2022/11/05 09:34:30;;;;;;;8.83;5.20;;;10.00;99.90;;;10.21;90.48;101091.75;4884077;29;20414;-72
2022/11/05 09:37:03;;;;;;;13.03;4.20;;;10.00;99.90;;;10.19;89.35;101088.41;4919021;29;20512;-71
2022/11/05 09:39:32;;;;;;;12.73;4.50;;;10.10;99.90;;;10.17;90.01;101101.28;4917558;29;20536;-72
2022/11/05 09:42:07;;;;;;;7.40;3.50;;;10.00;99.90;;;10.23;89.45;101098.63;4912274;29;20437;-70
2022/11/05 09:44:46;;;;;;;20.30;5.53;;;10.10;99.90;;;10.37;89.35;101096.88;4902627;29;20401;-73
2022/11/05 09:47:21;;;;;;;9.63;4.20;;;10.20;99.90;;;10.38;87.45;101093.97;4914971;29;20434;-71
2022/11/05 09:49:54;;;;;;;12.53;5.97;;;10.20;24.40;;;10.41;86.78;101100.84;4893324;29;20408;-69
2022/11/05 09:52:27;;;;;;;5.97;3.30;;;10.30;1.00;;;10.38;87.66;101104.78;4899231;29;20956;-71
2022/11/05 09:54:57;;;;;;;11.43;4.30;;;10.30;1.00;;;10.55;86.48;101105.34;4898433;29;20488;-70
2022/11/05 09:57:46;;;;;;;15.17;3.97;;;10.30;1.00;;;10.41;85.91;101104.38;4912387;29;20428;-69
2022/11/05 10:00:17;;;;;;;8.90;4.80;;;10.30;99.90;;;10.56;84.69;101108.88;4913856;29;20806;-71
2022/11/05 10:02:53;;;;;;;8.97;3.87;;;10.40;99.90;;;10.57;84.76;101114.09;4914564;29;20898;-70
2022/11/05 10:05:26;;;;;;;6.50;3.23;;;10.40;99.90;;;10.64;83.63;101108.75;4923946;29;20429;-73
2022/11/05 10:08:02;;;;;;;5.27;2.70;;;10.40;99.90;;;10.79;83.42;101102.19;4921699;29;20440;-70
2022/11/05 10:10:39;;;;;;;9.50;4.10;;;10.60;99.90;;;10.74;82.93;101117.34;4916187;29;20409;-72
2022/11/05 10:13:26;;;;;;;13.80;4.17;;;10.60;99.90;;;10.88;83.83;101119.13;4902136;29;20800;-72
2022/11/05 10:16:04;;;;;;;7.93;4.37;;;10.60;99.90;;;10.77;81.98;101111.53;4894050;29;20510;-69
2022/11/05 10:18:38;;;;;;;16.97;4.20;;;10.60;99.90;;;10.89;82.21;101115.38;4901706;29;20458;-69
2022/11/05 10:21:17;;;;;;;9.37;4.20;;;10.40;99.90;;;11.05;80.22;101111.50;4906276;29;20450;-69
2022/11/05 10:24:14;;;;;;;6.20;2.80;;;10.80;99.90;;;11.09;79.39;101116.31;4899282;29;20492;-69
2022/11/05 10:26:47;;;;;;;5.00;2.60;;;10.90;99.90;;;11.08;79.40;101119.22;4903830;29;20494;-70
2022/11/05 10:29:31;;;;;;;15.87;4.47;;;10.90;99.90;;;11.26;79.83;101120.38;4899563;29;20795;-69
2022/11/05 10:32:06;;;;;;;12.50;4.67;;;11.10;99.90;;;11.30;78.81;101131.63;4904283;29;20420;-70
2022/11/05 10:34:39;;;;;;;6.40;3.87;;;11.10;99.90;;;11.31;77.17;101122.47;4911632;29;20448;-71
2022/11/05 10:37:09;;;;;;;10.67;3.63;;;11.20;99.90;;;11.49;77.67;101114.63;4897107;29;20535;-69
2022/11/05 10:39:38;;;;;;;19.80;8.60;;;11.30;99.90;;;11.62;78.05;101120.06;4897458;29;20438;-70
2022/11/05 10:42:44;;;;;;;5.33;3.10;;;11.40;99.90;;;11.75;77.36;101125.59;4906573;29;20445;-69
2022/11/05 10:45:29;;;;;;;5.80;2.60;;;11.50;99.90;;;11.81;76.30;101128.53;4841882;29;20482;-71
2022/11/05 10:48:25;;;;;;;4.13;2.23;;;11.50;99.90;;;11.85;73.74;101140.63;4901069;29;20423;-72
2022/11/05 10:50:54;;;;;;;3.67;2.03;;;11.70;99.90;;;11.85;74.28;101146.91;4877813;29;20410;-71
2022/11/05 10:53:29;;;;;;;9.10;3.20;;;11.70;99.90;;;11.90;73.12;101143.56;4877617;29;20501;-69
2022/11/05 10:55:58;;;;;;;23.13;6.60;;;11.70;99.90;;;11.94;72.70;101144.81;4894358;29;20464;-70
2022/11/05 10:58:30;;;;;;;13.43;5.43;;;11.80;99.90;;;11.91;73.20;101150.66;4901761;29;20423;-71
2022/11/05 11:01:10;;;;;;;9.70;4.80;;;11.70;99.90;;;12.10;72.38;101144.47;4896131;29;20454;-71
2022/11/05 11:03:46;;;;;;;13.33;3.60;;;11.90;99.90;;;12.08;72.70;101149.25;4896833;29;20434;-72
2022/11/05 11:06:26;;;;;;;9.87;3.00;;;11.90;99.90;;;12.12;72.60;101147.78;4899644;29;20951;-69
2022/11/05 11:08:58;;;;;;;11.37;3.50;;;11.90;99.90;;;12.08;72.28;101149.25;4898621;29;20412;-71
2022/11/05 11:11:33;;;;;;;12.87;4.10;;;11.90;99.90;;;12.25;69.99;101142.38;4901447;29;20436;-71
2022/11/05 11:14:20;;;;;;;10.27;2.33;;;12.10;99.90;;;12.26;70.45;101151.34;4902140;29;20412;-70
2022/11/05 11:16:56;;;;;;;10.63;2.50;;;12.10;99.90;;;12.20;70.73;101150.28;4884224;29;20482;-70
2022/11/05 11:19:30;;;;;;;6.77;2.13;;;12.10;99.90;;;12.38;71.08;101153.25;4897068;29;20441;-70
2022/11/05 11:22:22;;;;;;;5.70;2.40;;;12.20;99.90;;;12.49;68.95;101155.31;4899219;29;20446;-70
2022/11/05 11:25:02;;;;;;;4.47;2.70;;;12.30;99.90;;;12.53;69.04;101153.88;4900803;29;20873;-70
2022/11/05 11:27:35;;;;;;;7.73;2.13;;;12.40;99.90;;;12.46;68.73;101153.03;4857288;29;20448;-71
2022/11/05 11:30:07;;;;;;;6.30;2.93;;;12.40;99.90;;;12.44;68.83;101148.88;4888977;29;20419;-71
2022/11/05 11:32:40;;;;;;;3.93;2.67;;;12.30;99.90;;;12.51;69.24;101155.97;4858783;29;20478;-71
2022/11/05 11:35:21;;;;;;;8.83;1.80;;;12.30;99.90;;;12.55;68.32;101159.94;4856408;29;20445;-71
2022/11/05 11:37:55;;;;;;;8.17;1.83;;;12.40;99.90;;;12.56;67.90;101150.75;4861478;29;20483;-71
2022/11/05 11:40:33;;;;;;;9.27;2.57;;;12.40;99.90;;;12.76;67.99;101149.91;4858749;29;20411;-71